sensor_id;sensor_type;location;lat;lon;timestamp;P1;durP1;ratioP1;P2;durP2;ratioP2
32242;SDS011;18731;42.830;24.390;2022-09-09T02:59:08;12.98;;;9.15;;
32242;SDS011;18731;42.830;24.390;2022-09-09T03:01:35;15.07;;;9.13;;
32242;SDS011;18731;42.830;24.390;2022-09-09T03:04:01;11.15;;;9.15;;
32242;SDS011;18731;42.830;24.390;2022-09-09T03:06:30;14.32;;;9.25;;
32242;SDS011;18731;42.830;24.390;2022-09-09T03:08:55;15.48;;;9.32;;
32242;SDS011;18731;42.830;24.390;2022-09-09T03:11:22;13.45;;;8.70;;
32242;SDS011;18731;42.830;24.390;2022-09-09T03:13:48;9.57;;;8.57;;
32242;SDS011;18731;42.830;24.390;2022-09-09T03:16:14;16.30;;;8.73;;
32242;SDS011;18731;42.830;24.390;2022-09-09T03:18:40;14.80;;;8.68;;
32242;SDS011;18731;42.830;24.390;2022-09-09T03:21:06;12.93;;;8.52;;
32242;SDS011;18731;42.830;24.390;2022-09-09T03:23:32;14.30;;;8.38;;
32242;SDS011;18731;42.830;24.390;2022-09-09T03:25:57;10.80;;;8.43;;
32242;SDS011;18731;42.830;24.390;2022-09-09T03:28:23;14.93;;;8.57;;
32242;SDS011;18731;42.830;24.390;2022-09-09T03:31:05;16.83;;;8.43;;
32242;SDS011;18731;42.830;24.390;2022-09-09T03:33:35;16.15;;;9.18;;
32242;SDS011;18731;42.830;24.390;2022-09-09T03:36:02;12.90;;;8.82;;
32242;SDS011;18731;42.830;24.390;2022-09-09T03:38:29;15.38;;;8.57;;
32242;SDS011;18731;42.830;24.390;2022-09-09T03:40:56;11.43;;;7.90;;
32242;SDS011;18731;42.830;24.390;2022-09-09T03:43:25;11.23;;;8.20;;
32242;SDS011;18731;42.830;24.390;2022-09-09T03:45:52;13.38;;;8.02;;
32242;SDS011;18731;42.830;24.390;2022-09-09T03:48:18;14.90;;;8.63;;
32242;SDS011;18731;42.830;24.390;2022-09-09T03:50:47;11.50;;;8.43;;
32242;SDS011;18731;42.830;24.390;2022-09-09T03:53:15;17.08;;;7.97;;
32242;SDS011;18731;42.830;24.390;2022-09-09T03:55:52;18.35;;;8.48;;
32242;SDS011;18731;42.830;24.390;2022-09-09T03:58:25;13.55;;;8.52;;
32242;SDS011;18731;42.830;24.390;2022-09-09T04:00:55;10.93;;;7.47;;
32242;SDS011;18731;42.830;24.390;2022-09-09T04:03:23;11.35;;;8.15;;
32242;SDS011;18731;42.830;24.390;2022-09-09T04:05:53;14.02;;;8.18;;
32242;SDS011;18731;42.830;24.390;2022-09-09T04:08:21;13.50;;;8.65;;
32242;SDS011;18731;42.830;24.390;2022-09-09T04:10:48;15.23;;;8.05;;
32242;SDS011;18731;42.830;24.390;2022-09-09T04:13:15;20.63;;;11.32;;
32242;SDS011;18731;42.830;24.390;2022-09-09T04:15:42;26.10;;;15.68;;
32242;SDS011;18731;42.830;24.390;2022-09-09T04:18:08;17.45;;;8.18;;
32242;SDS011;18731;42.830;24.390;2022-09-09T04:20:34;15.70;;;8.02;;
32242;SDS011;18731;42.830;24.390;2022-09-09T04:23:00;16.35;;;7.60;;
32242;SDS011;18731;42.830;24.390;2022-09-09T04:25:26;13.32;;;7.32;;
32242;SDS011;18731;42.830;24.390;2022-09-09T04:27:55;15.40;;;8.10;;
32242;SDS011;18731;42.830;24.390;2022-09-09T04:30:23;20.33;;;9.55;;
32242;SDS011;18731;42.830;24.390;2022-09-09T04:32:50;17.25;;;8.40;;
32242;SDS011;18731;42.830;24.390;2022-09-09T04:35:16;21.52;;;9.02;;
32242;SDS011;18731;42.830;24.390;2022-09-09T04:37:42;14.52;;;8.30;;
32242;SDS011;18731;42.830;24.390;2022-09-09T04:40:08;13.50;;;8.77;;
32242;SDS011;18731;42.830;24.390;2022-09-09T04:42:37;18.13;;;9.30;;
32242;SDS011;18731;42.830;24.390;2022-09-09T04:45:04;13.38;;;8.13;;
32242;SDS011;18731;42.830;24.390;2022-09-09T04:47:32;14.32;;;9.70;;
32242;SDS011;18731;42.830;24.390;2022-09-09T04:50:00;18.25;;;9.68;;
32242;SDS011;18731;42.830;24.390;2022-09-09T04:52:26;24.92;;;9.10;;
32242;SDS011;18731;42.830;24.390;2022-09-09T04:54:51;16.52;;;10.15;;
32242;SDS011;18731;42.830;24.390;2022-09-09T04:57:19;16.42;;;9.40;;
32242;SDS011;18731;42.830;24.390;2022-09-09T04:59:45;15.25;;;9.32;;
32242;SDS011;18731;42.830;24.390;2022-09-09T05:02:11;14.05;;;7.00;;
32242;SDS011;18731;42.830;24.390;2022-09-09T05:04:37;16.88;;;8.52;;
32242;SDS011;18731;42.830;24.390;2022-09-09T05:07:02;17.15;;;8.98;;
32242;SDS011;18731;42.830;24.390;2022-09-09T05:09:28;14.05;;;7.70;;
32242;SDS011;18731;42.830;24.390;2022-09-09T05:11:55;10.75;;;7.35;;
32242;SDS011;18731;42.830;24.390;2022-09-09T05:14:21;13.15;;;7.72;;
32242;SDS011;18731;42.830;24.390;2022-09-09T05:16:47;14.73;;;6.78;;
32242;SDS011;18731;42.830;24.390;2022-09-09T05:19:14;11.40;;;5.55;;
32242;SDS011;18731;42.830;24.390;2022-09-09T05:21:40;13.40;;;6.28;;
32242;SDS011;18731;42.830;24.390;2022-09-09T05:24:06;17.40;;;6.30;;
32242;SDS011;18731;42.830;24.390;2022-09-09T05:26:32;16.85;;;6.30;;
32242;SDS011;18731;42.830;24.390;2022-09-09T05:28:58;12.02;;;5.82;;
32242;SDS011;18731;42.830;24.390;2022-09-09T05:31:25;13.43;;;7.30;;
32242;SDS011;18731;42.830;24.390;2022-09-09T05:33:53;13.60;;;6.45;;
32242;SDS011;18731;42.830;24.390;2022-09-09T05:36:20;17.08;;;6.35;;
32242;SDS011;18731;42.830;24.390;2022-09-09T05:38:47;16.45;;;7.18;;
32242;SDS011;18731;42.830;24.390;2022-09-09T05:41:13;18.73;;;6.93;;
32242;SDS011;18731;42.830;24.390;2022-09-09T05:43:42;15.20;;;6.63;;
32242;SDS011;18731;42.830;24.390;2022-09-09T05:46:10;14.52;;;7.20;;
32242;SDS011;18731;42.830;24.390;2022-09-09T05:48:39;11.85;;;7.07;;
32242;SDS011;18731;42.830;24.390;2022-09-09T05:51:08;24.63;;;7.25;;
32242;SDS011;18731;42.830;24.390;2022-09-09T05:53:37;9.70;;;6.25;;
32242;SDS011;18731;42.830;24.390;2022-09-09T05:58:31;10.05;;;5.70;;
32242;SDS011;18731;42.830;24.390;2022-09-09T06:01:02;13.40;;;5.38;;
32242;SDS011;18731;42.830;24.390;2022-09-09T06:03:32;12.27;;;5.72;;
32242;SDS011;18731;42.830;24.390;2022-09-09T06:06:00;12.57;;;6.03;;
32242;SDS011;18731;42.830;24.390;2022-09-09T06:08:27;18.52;;;5.00;;
32242;SDS011;18731;42.830;24.390;2022-09-09T06:10:53;12.05;;;4.85;;
32242;SDS011;18731;42.830;24.390;2022-09-09T06:13:19;9.40;;;5.13;;
32242;SDS011;18731;42.830;24.390;2022-09-09T06:15:51;8.63;;;4.47;;
32242;SDS011;18731;42.830;24.390;2022-09-09T06:18:18;13.00;;;4.85;;
32242;SDS011;18731;42.830;24.390;2022-09-09T06:20:59;10.73;;;4.38;;
32242;SDS011;18731;42.830;24.390;2022-09-09T06:23:29;13.10;;;4.40;;
32242;SDS011;18731;42.830;24.390;2022-09-09T06:26:06;11.52;;;5.30;;
32242;SDS011;18731;42.830;24.390;2022-09-09T06:28:34;10.75;;;4.78;;
32242;SDS011;18731;42.830;24.390;2022-09-09T06:31:03;9.07;;;4.70;;
32242;SDS011;18731;42.830;24.390;2022-09-09T06:33:32;10.55;;;4.07;;
32242;SDS011;18731;42.830;24.390;2022-09-09T06:36:00;15.88;;;4.60;;
32242;SDS011;18731;42.830;24.390;2022-09-09T06:38:27;12.40;;;4.50;;
32242;SDS011;18731;42.830;24.390;2022-09-09T06:40:53;12.45;;;4.35;;
32242;SDS011;18731;42.830;24.390;2022-09-09T06:43:21;10.40;;;4.55;;
32242;SDS011;18731;42.830;24.390;2022-09-09T06:45:55;10.82;;;4.38;;
32242;SDS011;18731;42.830;24.390;2022-09-09T06:48:25;9.57;;;3.90;;
32242;SDS011;18731;42.830;24.390;2022-09-09T06:53:49;17.10;;;4.30;;
32242;SDS011;18731;42.830;24.390;2022-09-09T06:58:42;18.63;;;4.63;;
32242;SDS011;18731;42.830;24.390;2022-09-09T07:01:10;11.27;;;4.30;;
32242;SDS011;18731;42.830;24.390;2022-09-09T07:03:40;10.50;;;4.32;;
32242;SDS011;18731;42.830;24.390;2022-09-09T07:06:08;17.48;;;4.18;;
32242;SDS011;18731;42.830;24.390;2022-09-09T07:08:39;9.90;;;3.88;;
32242;SDS011;18731;42.830;24.390;2022-09-09T07:11:07;10.82;;;4.00;;
32242;SDS011;18731;42.830;24.390;2022-09-09T07:13:34;6.03;;;3.70;;
32242;SDS011;18731;42.830;24.390;2022-09-09T07:16:04;12.18;;;4.10;;
32242;SDS011;18731;42.830;24.390;2022-09-09T07:18:31;9.85;;;3.83;;
32242;SDS011;18731;42.830;24.390;2022-09-09T07:20:58;10.65;;;3.72;;
32242;SDS011;18731;42.830;24.390;2022-09-09T07:23:24;12.98;;;3.97;;
32242;SDS011;18731;42.830;24.390;2022-09-09T07:25:51;17.33;;;4.18;;
32242;SDS011;18731;42.830;24.390;2022-09-09T07:28:18;10.23;;;3.97;;
32242;SDS011;18731;42.830;24.390;2022-09-09T07:30:52;13.98;;;3.70;;
32242;SDS011;18731;42.830;24.390;2022-09-09T07:33:23;12.88;;;4.38;;
32242;SDS011;18731;42.830;24.390;2022-09-09T07:35:50;11.20;;;3.63;;
32242;SDS011;18731;42.830;24.390;2022-09-09T07:38:17;10.73;;;3.60;;
32242;SDS011;18731;42.830;24.390;2022-09-09T07:40:44;13.88;;;4.07;;
32242;SDS011;18731;42.830;24.390;2022-09-09T07:43:10;10.25;;;3.42;;
32242;SDS011;18731;42.830;24.390;2022-09-09T07:45:37;15.90;;;3.85;;
32242;SDS011;18731;42.830;24.390;2022-09-09T07:48:03;7.55;;;4.43;;
32242;SDS011;18731;42.830;24.390;2022-09-09T07:50:30;12.10;;;4.32;;
32242;SDS011;18731;42.830;24.390;2022-09-09T07:52:56;8.27;;;3.70;;
32242;SDS011;18731;42.830;24.390;2022-09-09T07:55:22;8.88;;;3.83;;
32242;SDS011;18731;42.830;24.390;2022-09-09T07:57:52;8.82;;;3.42;;
32242;SDS011;18731;42.830;24.390;2022-09-09T08:00:19;13.35;;;4.40;;
32242;SDS011;18731;42.830;24.390;2022-09-09T08:02:47;9.15;;;4.78;;
32242;SDS011;18731;42.830;24.390;2022-09-09T08:05:13;15.75;;;4.45;;
32242;SDS011;18731;42.830;24.390;2022-09-09T08:07:40;14.02;;;4.65;;
32242;SDS011;18731;42.830;24.390;2022-09-09T08:10:06;15.48;;;4.55;;
32242;SDS011;18731;42.830;24.390;2022-09-09T08:12:32;10.27;;;5.20;;
32242;SDS011;18731;42.830;24.390;2022-09-09T08:14:57;8.30;;;4.55;;
32242;SDS011;18731;42.830;24.390;2022-09-09T08:17:23;13.20;;;5.03;;
32242;SDS011;18731;42.830;24.390;2022-09-09T08:19:49;10.32;;;4.18;;
32242;SDS011;18731;42.830;24.390;2022-09-09T08:22:15;10.65;;;4.28;;
32242;SDS011;18731;42.830;24.390;2022-09-09T08:24:41;12.55;;;4.55;;
32242;SDS011;18731;42.830;24.390;2022-09-09T08:27:07;11.32;;;4.47;;
32242;SDS011;18731;42.830;24.390;2022-09-09T08:29:35;11.93;;;4.25;;
32242;SDS011;18731;42.830;24.390;2022-09-09T08:32:03;10.90;;;3.63;;
32242;SDS011;18731;42.830;24.390;2022-09-09T08:34:29;10.02;;;4.05;;
32242;SDS011;18731;42.830;24.390;2022-09-09T08:36:56;6.78;;;3.92;;
32242;SDS011;18731;42.830;24.390;2022-09-09T08:39:22;6.28;;;3.80;;
32242;SDS011;18731;42.830;24.390;2022-09-09T08:41:55;10.13;;;3.75;;
32242;SDS011;18731;42.830;24.390;2022-09-09T08:52:50;10.75;;;3.20;;
32242;SDS011;18731;42.830;24.390;2022-09-09T08:56:06;7.10;;;3.17;;
32242;SDS011;18731;42.830;24.390;2022-09-09T08:58:18;13.77;;;3.20;;
32242;SDS011;18731;42.830;24.390;2022-09-09T09:00:54;5.65;;;3.03;;
32242;SDS011;18731;42.830;24.390;2022-09-09T09:06:04;7.70;;;3.05;;
32242;SDS011;18731;42.830;24.390;2022-09-09T09:08:56;7.45;;;3.20;;
32242;SDS011;18731;42.830;24.390;2022-09-09T09:11:39;9.98;;;3.38;;
32242;SDS011;18731;42.830;24.390;2022-09-09T09:14:12;11.43;;;3.05;;
32242;SDS011;18731;42.830;24.390;2022-09-09T09:16:52;7.25;;;3.15;;
32242;SDS011;18731;42.830;24.390;2022-09-09T09:19:19;10.82;;;3.20;;
32242;SDS011;18731;42.830;24.390;2022-09-09T09:21:50;11.55;;;3.13;;
32242;SDS011;18731;42.830;24.390;2022-09-09T09:30:28;9.88;;;2.97;;
32242;SDS011;18731;42.830;24.390;2022-09-09T09:35:25;15.70;;;3.58;;
32242;SDS011;18731;42.830;24.390;2022-09-09T09:37:51;11.73;;;3.22;;
32242;SDS011;18731;42.830;24.390;2022-09-09T09:40:18;10.15;;;3.78;;
32242;SDS011;18731;42.830;24.390;2022-09-09T09:45:26;18.67;;;3.33;;
32242;SDS011;18731;42.830;24.390;2022-09-09T09:47:58;14.48;;;3.42;;
32242;SDS011;18731;42.830;24.390;2022-09-09T09:50:25;10.68;;;3.20;;
32242;SDS011;18731;42.830;24.390;2022-09-09T09:52:57;8.43;;;3.42;;
32242;SDS011;18731;42.830;24.390;2022-09-09T09:55:25;11.68;;;3.88;;
32242;SDS011;18731;42.830;24.390;2022-09-09T09:58:00;16.85;;;4.07;;
32242;SDS011;18731;42.830;24.390;2022-09-09T10:00:28;12.15;;;4.20;;
32242;SDS011;18731;42.830;24.390;2022-09-09T10:02:53;12.43;;;3.88;;
32242;SDS011;18731;42.830;24.390;2022-09-09T10:05:23;15.73;;;3.95;;
32242;SDS011;18731;42.830;24.390;2022-09-09T10:08:05;12.98;;;3.97;;
32242;SDS011;18731;42.830;24.390;2022-09-09T10:10:54;12.82;;;4.00;;
32242;SDS011;18731;42.830;24.390;2022-09-09T10:16:16;16.52;;;3.22;;
32242;SDS011;18731;42.830;24.390;2022-09-09T10:29:51;18.75;;;4.55;;
32242;SDS011;18731;42.830;24.390;2022-09-09T10:43:00;16.23;;;4.32;;
32242;SDS011;18731;42.830;24.390;2022-09-09T10:51:46;27.95;;;4.97;;
32242;SDS011;18731;42.830;24.390;2022-09-09T10:56:58;14.60;;;4.55;;
32242;SDS011;18731;42.830;24.390;2022-09-09T10:59:30;18.10;;;4.20;;
32242;SDS011;18731;42.830;24.390;2022-09-09T11:02:01;16.48;;;4.57;;
32242;SDS011;18731;42.830;24.390;2022-09-09T11:04:45;20.30;;;4.55;;
32242;SDS011;18731;42.830;24.390;2022-09-09T11:07:21;16.38;;;4.75;;
32242;SDS011;18731;42.830;24.390;2022-09-09T11:10:02;12.50;;;4.32;;
32242;SDS011;18731;42.830;24.390;2022-09-09T11:12:43;12.75;;;3.95;;
32242;SDS011;18731;42.830;24.390;2022-09-09T11:15:15;12.50;;;4.30;;
32242;SDS011;18731;42.830;24.390;2022-09-09T11:17:54;12.73;;;4.03;;
32242;SDS011;18731;42.830;24.390;2022-09-09T11:20:22;18.77;;;4.70;;
32242;SDS011;18731;42.830;24.390;2022-09-09T11:22:58;20.10;;;4.35;;
32242;SDS011;18731;42.830;24.390;2022-09-09T11:25:41;17.92;;;3.97;;
32242;SDS011;18731;42.830;24.390;2022-09-09T11:33:45;15.95;;;4.43;;
32242;SDS011;18731;42.830;24.390;2022-09-09T11:44:45;15.38;;;5.05;;
32242;SDS011;18731;42.830;24.390;2022-09-09T11:50:06;14.32;;;4.85;;
32242;SDS011;18731;42.830;24.390;2022-09-09T11:55:11;22.58;;;5.00;;
32242;SDS011;18731;42.830;24.390;2022-09-09T11:58:03;14.25;;;4.55;;
32242;SDS011;18731;42.830;24.390;2022-09-09T12:00:40;18.38;;;4.95;;
32242;SDS011;18731;42.830;24.390;2022-09-09T12:05:56;15.63;;;4.75;;
32242;SDS011;18731;42.830;24.390;2022-09-09T12:08:26;20.20;;;4.82;;
32242;SDS011;18731;42.830;24.390;2022-09-09T12:10:54;13.23;;;4.88;;
32242;SDS011;18731;42.830;24.390;2022-09-09T12:13:23;20.05;;;8.13;;
32242;SDS011;18731;42.830;24.390;2022-09-09T12:15:51;25.20;;;9.95;;
32242;SDS011;18731;42.830;24.390;2022-09-09T12:18:51;20.20;;;5.50;;
32242;SDS011;18731;42.830;24.390;2022-09-09T12:21:15;16.13;;;5.40;;
32242;SDS011;18731;42.830;24.390;2022-09-09T12:23:57;15.77;;;6.00;;
32242;SDS011;18731;42.830;24.390;2022-09-09T12:29:12;17.85;;;5.60;;
32242;SDS011;18731;42.830;24.390;2022-09-09T12:39:54;18.83;;;5.82;;
32242;SDS011;18731;42.830;24.390;2022-09-09T12:42:25;10.75;;;5.05;;
32242;SDS011;18731;42.830;24.390;2022-09-09T12:44:52;14.35;;;4.70;;
32242;SDS011;18731;42.830;24.390;2022-09-09T12:47:20;15.20;;;5.03;;
32242;SDS011;18731;42.830;24.390;2022-09-09T12:49:50;13.95;;;4.72;;
32242;SDS011;18731;42.830;24.390;2022-09-09T12:52:20;23.13;;;5.32;;
32242;SDS011;18731;42.830;24.390;2022-09-09T12:54:52;26.00;;;5.93;;
32242;SDS011;18731;42.830;24.390;2022-09-09T12:57:19;35.63;;;6.00;;
32242;SDS011;18731;42.830;24.390;2022-09-09T12:59:47;18.50;;;5.45;;
32242;SDS011;18731;42.830;24.390;2022-09-09T13:02:23;30.77;;;5.70;;
32242;SDS011;18731;42.830;24.390;2022-09-09T13:04:51;18.98;;;5.55;;
32242;SDS011;18731;42.830;24.390;2022-09-09T13:07:19;33.22;;;6.18;;
32242;SDS011;18731;42.830;24.390;2022-09-09T13:09:47;19.20;;;5.65;;
32242;SDS011;18731;42.830;24.390;2022-09-09T13:12:15;19.63;;;4.97;;
32242;SDS011;18731;42.830;24.390;2022-09-09T13:14:44;16.30;;;5.45;;
32242;SDS011;18731;42.830;24.390;2022-09-09T13:17:21;19.90;;;5.85;;
32242;SDS011;18731;42.830;24.390;2022-09-09T13:27:40;17.95;;;5.95;;
32242;SDS011;18731;42.830;24.390;2022-09-09T13:33:22;15.57;;;5.05;;
32242;SDS011;18731;42.830;24.390;2022-09-09T13:35:55;21.42;;;5.82;;
32242;SDS011;18731;42.830;24.390;2022-09-09T13:41:08;19.70;;;6.18;;
32242;SDS011;18731;42.830;24.390;2022-09-09T13:43:42;14.30;;;5.07;;
32242;SDS011;18731;42.830;24.390;2022-09-09T13:51:43;25.50;;;5.85;;
32242;SDS011;18731;42.830;24.390;2022-09-09T13:54:15;20.88;;;5.65;;
32242;SDS011;18731;42.830;24.390;2022-09-09T13:56:43;23.48;;;6.05;;
32242;SDS011;18731;42.830;24.390;2022-09-09T13:59:10;23.45;;;6.38;;
32242;SDS011;18731;42.830;24.390;2022-09-09T14:01:41;21.60;;;6.10;;
32242;SDS011;18731;42.830;24.390;2022-09-09T14:04:07;18.60;;;5.72;;
32242;SDS011;18731;42.830;24.390;2022-09-09T14:06:34;20.48;;;5.30;;
32242;SDS011;18731;42.830;24.390;2022-09-09T14:09:05;17.90;;;5.30;;
32242;SDS011;18731;42.830;24.390;2022-09-09T14:11:32;22.65;;;6.00;;
32242;SDS011;18731;42.830;24.390;2022-09-09T14:13:57;23.13;;;5.50;;
32242;SDS011;18731;42.830;24.390;2022-09-09T14:16:23;12.77;;;5.18;;
32242;SDS011;18731;42.830;24.390;2022-09-09T14:18:49;16.63;;;5.18;;
32242;SDS011;18731;42.830;24.390;2022-09-09T14:21:15;19.90;;;5.38;;
32242;SDS011;18731;42.830;24.390;2022-09-09T14:23:41;13.65;;;5.43;;
32242;SDS011;18731;42.830;24.390;2022-09-09T14:26:07;12.57;;;5.60;;
32242;SDS011;18731;42.830;24.390;2022-09-09T14:28:34;24.08;;;5.22;;
32242;SDS011;18731;42.830;24.390;2022-09-09T14:31:01;15.75;;;5.55;;
32242;SDS011;18731;42.830;24.390;2022-09-09T14:33:29;20.50;;;5.38;;
32242;SDS011;18731;42.830;24.390;2022-09-09T14:36:02;20.50;;;5.50;;
32242;SDS011;18731;42.830;24.390;2022-09-09T14:38:29;21.73;;;6.10;;
32242;SDS011;18731;42.830;24.390;2022-09-09T14:40:56;19.73;;;6.00;;
32242;SDS011;18731;42.830;24.390;2022-09-09T14:43:23;20.25;;;5.45;;
32242;SDS011;18731;42.830;24.390;2022-09-09T14:45:49;17.58;;;6.30;;
32242;SDS011;18731;42.830;24.390;2022-09-09T14:48:16;27.98;;;6.25;;
32242;SDS011;18731;42.830;24.390;2022-09-09T14:50:42;24.15;;;6.50;;
32242;SDS011;18731;42.830;24.390;2022-09-09T14:53:09;19.63;;;6.13;;
32242;SDS011;18731;42.830;24.390;2022-09-09T14:55:35;16.85;;;5.75;;
32242;SDS011;18731;42.830;24.390;2022-09-09T14:58:02;28.10;;;6.10;;
32242;SDS011;18731;42.830;24.390;2022-09-09T15:00:29;19.13;;;6.10;;
32242;SDS011;18731;42.830;24.390;2022-09-09T15:02:55;17.65;;;6.47;;
32242;SDS011;18731;42.830;24.390;2022-09-09T15:05:20;18.55;;;9.02;;
32242;SDS011;18731;42.830;24.390;2022-09-09T15:07:47;15.00;;;6.68;;
32242;SDS011;18731;42.830;24.390;2022-09-09T15:10:15;16.60;;;6.03;;
32242;SDS011;18731;42.830;24.390;2022-09-09T15:12:42;16.33;;;6.03;;
32242;SDS011;18731;42.830;24.390;2022-09-09T15:15:09;18.15;;;5.30;;
32242;SDS011;18731;42.830;24.390;2022-09-09T15:17:35;16.58;;;5.72;;
32242;SDS011;18731;42.830;24.390;2022-09-09T15:20:04;15.98;;;5.75;;
32242;SDS011;18731;42.830;24.390;2022-09-09T15:22:31;20.85;;;6.22;;
32242;SDS011;18731;42.830;24.390;2022-09-09T15:24:58;18.17;;;5.68;;
32242;SDS011;18731;42.830;24.390;2022-09-09T15:27:23;21.23;;;5.95;;
32242;SDS011;18731;42.830;24.390;2022-09-09T15:29:49;19.55;;;6.25;;
32242;SDS011;18731;42.830;24.390;2022-09-09T15:32:16;16.50;;;5.70;;
32242;SDS011;18731;42.830;24.390;2022-09-09T15:34:43;17.60;;;6.00;;
32242;SDS011;18731;42.830;24.390;2022-09-09T15:37:09;23.98;;;6.03;;
32242;SDS011;18731;42.830;24.390;2022-09-09T15:39:38;22.80;;;6.03;;
32242;SDS011;18731;42.830;24.390;2022-09-09T15:42:06;19.75;;;6.18;;
32242;SDS011;18731;42.830;24.390;2022-09-09T15:44:40;17.15;;;6.18;;
32242;SDS011;18731;42.830;24.390;2022-09-09T15:47:07;21.73;;;7.07;;
32242;SDS011;18731;42.830;24.390;2022-09-09T15:49:37;16.52;;;6.38;;
32242;SDS011;18731;42.830;24.390;2022-09-09T15:52:03;24.35;;;6.82;;
32242;SDS011;18731;42.830;24.390;2022-09-09T15:54:33;15.27;;;6.45;;
32242;SDS011;18731;42.830;24.390;2022-09-09T15:57:01;14.57;;;7.18;;
32242;SDS011;18731;42.830;24.390;2022-09-09T15:59:29;13.07;;;6.47;;
32242;SDS011;18731;42.830;24.390;2022-09-09T16:01:56;22.25;;;7.25;;
32242;SDS011;18731;42.830;24.390;2022-09-09T16:04:25;17.50;;;6.50;;
32242;SDS011;18731;42.830;24.390;2022-09-09T16:06:52;14.98;;;7.32;;
32242;SDS011;18731;42.830;24.390;2022-09-09T16:09:19;16.15;;;7.25;;
32242;SDS011;18731;42.830;24.390;2022-09-09T16:11:46;15.05;;;6.45;;
32242;SDS011;18731;42.830;24.390;2022-09-09T16:14:13;23.13;;;7.85;;
32242;SDS011;18731;42.830;24.390;2022-09-09T16:16:41;22.45;;;7.55;;
32242;SDS011;18731;42.830;24.390;2022-09-09T16:19:08;20.25;;;8.05;;
32242;SDS011;18731;42.830;24.390;2022-09-09T16:21:38;20.17;;;8.23;;
32242;SDS011;18731;42.830;24.390;2022-09-09T16:24:06;21.15;;;8.77;;
32242;SDS011;18731;42.830;24.390;2022-09-09T16:26:34;16.17;;;7.35;;
32242;SDS011;18731;42.830;24.390;2022-09-09T16:29:02;20.65;;;7.07;;
32242;SDS011;18731;42.830;24.390;2022-09-09T16:31:28;21.83;;;7.82;;
32242;SDS011;18731;42.830;24.390;2022-09-09T16:33:55;19.52;;;8.45;;
32242;SDS011;18731;42.830;24.390;2022-09-09T16:36:21;14.07;;;7.95;;
32242;SDS011;18731;42.830;24.390;2022-09-09T16:38:52;17.83;;;7.85;;
32242;SDS011;18731;42.830;24.390;2022-09-09T16:41:22;10.43;;;7.45;;
32242;SDS011;18731;42.830;24.390;2022-09-09T16:43:52;16.33;;;7.45;;
32242;SDS011;18731;42.830;24.390;2022-09-09T16:46:23;20.83;;;8.18;;
32242;SDS011;18731;42.830;24.390;2022-09-09T16:48:49;22.40;;;7.40;;
32242;SDS011;18731;42.830;24.390;2022-09-09T16:51:20;15.65;;;7.60;;
32242;SDS011;18731;42.830;24.390;2022-09-09T16:53:49;15.40;;;6.90;;
32242;SDS011;18731;42.830;24.390;2022-09-09T16:56:17;16.35;;;7.95;;
32242;SDS011;18731;42.830;24.390;2022-09-09T16:58:52;13.30;;;7.90;;
32242;SDS011;18731;42.830;24.390;2022-09-09T17:01:21;20.45;;;8.30;;
32242;SDS011;18731;42.830;24.390;2022-09-09T17:03:54;20.20;;;7.63;;
32242;SDS011;18731;42.830;24.390;2022-09-09T17:06:20;19.02;;;8.43;;
32242;SDS011;18731;42.830;24.390;2022-09-09T17:08:47;9.65;;;7.57;;
32242;SDS011;18731;42.830;24.390;2022-09-09T17:13:44;23.60;;;9.05;;
32242;SDS011;18731;42.830;24.390;2022-09-09T17:16:12;19.45;;;9.82;;
32242;SDS011;18731;42.830;24.390;2022-09-09T17:18:39;19.42;;;11.10;;
32242;SDS011;18731;42.830;24.390;2022-09-09T17:21:06;14.35;;;9.35;;
32242;SDS011;18731;42.830;24.390;2022-09-09T17:23:34;13.05;;;8.80;;
32242;SDS011;18731;42.830;24.390;2022-09-09T17:26:06;20.48;;;8.73;;
32242;SDS011;18731;42.830;24.390;2022-09-09T17:28:35;13.70;;;9.32;;
32242;SDS011;18731;42.830;24.390;2022-09-09T17:31:04;16.60;;;9.20;;
32242;SDS011;18731;42.830;24.390;2022-09-09T17:33:35;16.55;;;8.60;;
32242;SDS011;18731;42.830;24.390;2022-09-09T17:36:06;14.05;;;8.80;;
32242;SDS011;18731;42.830;24.390;2022-09-09T17:38:36;17.95;;;8.93;;
32242;SDS011;18731;42.830;24.390;2022-09-09T17:41:10;12.70;;;9.50;;
32242;SDS011;18731;42.830;24.390;2022-09-09T17:48:37;20.65;;;9.88;;
32242;SDS011;18731;42.830;24.390;2022-09-09T17:51:04;13.85;;;9.40;;
32242;SDS011;18731;42.830;24.390;2022-09-09T17:53:36;20.92;;;9.60;;
32242;SDS011;18731;42.830;24.390;2022-09-09T17:56:07;15.80;;;10.20;;
32242;SDS011;18731;42.830;24.390;2022-09-09T17:58:35;19.08;;;11.88;;
32242;SDS011;18731;42.830;24.390;2022-09-09T18:01:05;17.85;;;10.57;;
32242;SDS011;18731;42.830;24.390;2022-09-09T18:03:40;19.48;;;9.85;;
32242;SDS011;18731;42.830;24.390;2022-09-09T18:06:08;20.77;;;10.02;;
32242;SDS011;18731;42.830;24.390;2022-09-09T18:08:38;16.30;;;10.48;;
32242;SDS011;18731;42.830;24.390;2022-09-09T18:11:05;22.00;;;10.18;;
32242;SDS011;18731;42.830;24.390;2022-09-09T18:13:31;13.20;;;9.80;;
32242;SDS011;18731;42.830;24.390;2022-09-09T18:15:58;18.30;;;11.27;;
32242;SDS011;18731;42.830;24.390;2022-09-09T18:18:25;16.52;;;9.70;;
32242;SDS011;18731;42.830;24.390;2022-09-09T18:21:06;22.25;;;9.63;;
32242;SDS011;18731;42.830;24.390;2022-09-09T18:23:34;15.55;;;9.80;;
32242;SDS011;18731;42.830;24.390;2022-09-09T18:26:05;16.20;;;10.32;;
32242;SDS011;18731;42.830;24.390;2022-09-09T18:28:39;19.35;;;9.25;;
32242;SDS011;18731;42.830;24.390;2022-09-09T18:31:10;17.17;;;9.10;;
32242;SDS011;18731;42.830;24.390;2022-09-09T18:33:39;15.65;;;9.25;;
32242;SDS011;18731;42.830;24.390;2022-09-09T18:36:08;17.33;;;9.10;;
32242;SDS011;18731;42.830;24.390;2022-09-09T18:38:35;16.58;;;9.25;;
32242;SDS011;18731;42.830;24.390;2022-09-09T18:44:05;17.10;;;9.20;;
32242;SDS011;18731;42.830;24.390;2022-09-09T18:46:33;22.83;;;9.38;;
32242;SDS011;18731;42.830;24.390;2022-09-09T18:49:01;20.50;;;9.77;;
32242;SDS011;18731;42.830;24.390;2022-09-09T18:51:27;20.02;;;9.50;;
32242;SDS011;18731;42.830;24.390;2022-09-09T18:54:04;20.17;;;8.73;;
32242;SDS011;18731;42.830;24.390;2022-09-09T18:56:34;18.52;;;9.27;;
32242;SDS011;18731;42.830;24.390;2022-09-09T18:59:01;15.00;;;8.88;;
32242;SDS011;18731;42.830;24.390;2022-09-09T19:01:29;20.65;;;9.13;;
32242;SDS011;18731;42.830;24.390;2022-09-09T19:03:55;19.38;;;9.43;;
32242;SDS011;18731;42.830;24.390;2022-09-09T19:06:22;17.85;;;9.02;;
32242;SDS011;18731;42.830;24.390;2022-09-09T19:08:51;19.10;;;9.40;;
32242;SDS011;18731;42.830;24.390;2022-09-09T19:11:19;15.13;;;9.05;;
32242;SDS011;18731;42.830;24.390;2022-09-09T19:13:49;18.70;;;9.45;;
32242;SDS011;18731;42.830;24.390;2022-09-09T19:16:16;18.15;;;9.73;;
32242;SDS011;18731;42.830;24.390;2022-09-09T19:18:43;16.10;;;8.75;;
32242;SDS011;18731;42.830;24.390;2022-09-09T19:21:11;24.05;;;9.30;;
32242;SDS011;18731;42.830;24.390;2022-09-09T19:23:42;20.70;;;8.98;;
32242;SDS011;18731;42.830;24.390;2022-09-09T19:26:09;18.60;;;8.80;;
32242;SDS011;18731;42.830;24.390;2022-09-09T19:28:35;11.88;;;8.50;;
32242;SDS011;18731;42.830;24.390;2022-09-09T19:31:04;23.23;;;9.10;;
32242;SDS011;18731;42.830;24.390;2022-09-09T19:33:32;21.02;;;8.55;;
32242;SDS011;18731;42.830;24.390;2022-09-09T19:36:00;16.80;;;7.95;;